Louisville, Nebraska
Current Conditions -  °F | °C
As of 8:15 AM on Wednesday 26 Nov 2014 (Local Time) from KPMV Reporting Station
Overcast Overcast  
Wind Chill: 26°   Ceiling: 1700
Heat Index: 37°   Visibility: 10mi
Dew Point: 32°   Wind: 21mph
Humidity: 82%   Direction: 300°WNW
Pressure: 29.91"   Gusts: 32mph
Location:  41°N, 96.16°W
Report Text: KPMV 261415Z AUTO 30018G28KT 10SM OVC017 03/00 A2991 RMK AO2 T00261002
Loading
Personal Weather Stations






























Interactive Weather Map New forecast layout! Learn more

10-Day Weather Forecast

Advertisements
Track Severe Weather on mobile